Time;durP1;ratioP1;P1;durP2;ratioP2;P2;SDS_P1;SDS_P2;PMS_P1;PMS_P2;Temp;Humidity;BMP_temperature;BMP_pressure;BME280_temperature;BME280_humidity;BME280_pressure;Samples;Min_cycle;Max_cycle;Signal;HPM_P1;HPM_P2
2022/05/03 00:00:06;;;;;;;;;3.75;3.75;;;;;;;;4983647;28;46502;-73
2022/05/03 00:02:31;;;;;;;;;5.00;4.00;;;;;;;;4985244;28;45563;-73
2022/05/03 00:04:59;;;;;;;;;4.00;4.00;;;;;;;;4992572;28;45502;-73
2022/05/03 00:07:33;;;;;;;;;5.50;5.50;;;;;;;;4977402;28;45618;-73
2022/05/03 00:10:06;;;;;;;;;6.00;5.00;;;;;;;;4982989;28;45526;-73
2022/05/03 00:12:41;;;;;;;;;4.00;4.00;;;;;;;;4983553;28;45463;-73
2022/05/03 00:15:07;;;;;;;;;5.75;5.75;;;;;;;;4981662;28;45478;-73
2022/05/03 00:17:33;;;;;;;;;4.25;4.25;;;;;;;;4985163;28;45322;-73
2022/05/03 00:19:59;;;;;;;;;5.75;4.25;;;;;;;;4994583;28;45385;-73
2022/05/03 00:22:24;;;;;;;;;4.75;4.75;;;;;;;;4993338;28;46554;-72
2022/05/03 00:24:54;;;;;;;;;3.50;3.50;;;;;;;;4993523;28;45456;-73
2022/05/03 00:27:20;;;;;;;;;5.75;5.75;;;;;;;;4985853;28;45385;-73
2022/05/03 00:29:45;;;;;;;;;4.25;4.25;;;;;;;;4988757;28;45400;-73
2022/05/03 00:32:12;;;;;;;;;4.50;4.00;;;;;;;;4995657;28;45475;-73
2022/05/03 00:34:37;;;;;;;;;4.25;4.00;;;;;;;;4987918;28;45534;-72
2022/05/03 00:37:03;;;;;;;;;6.75;6.00;;;;;;;;5003482;28;45408;-73
2022/05/03 00:39:28;;;;;;;;;4.00;4.00;;;;;;;;4986072;28;45563;-73
2022/05/03 00:41:56;;;;;;;;;4.00;4.00;;;;;;;;4983943;28;46468;-73
2022/05/03 00:47:10;;;;;;;;;6.50;5.00;;;;;;;;4995608;28;45622;-73
2022/05/03 00:49:52;;;;;;;;;6.00;6.00;;;;;;;;4981582;28;45297;-73
2022/05/03 00:52:24;;;;;;;;;5.50;4.75;;;;;;;;4992937;28;46202;-73
2022/05/03 00:55:06;;;;;;;;;5.25;4.50;;;;;;;;4980714;28;45346;-73
2022/05/03 00:57:50;;;;;;;;;4.50;4.50;;;;;;;;4992133;28;45438;-73
2022/05/03 01:00:15;;;;;;;;;5.50;5.50;;;;;;;;4984974;28;45692;-73
2022/05/03 01:02:59;;;;;;;;;3.50;3.50;;;;;;;;4998511;28;45433;-74
2022/05/03 01:05:28;;;;;;;;;5.75;4.75;;;;;;;;4994943;28;45487;-73
2022/05/03 01:08:04;;;;;;;;;5.00;5.00;;;;;;;;4993347;28;45301;-73
2022/05/03 01:10:35;;;;;;;;;6.25;6.00;;;;;;;;4994057;28;49243;-74
2022/05/03 01:13:03;;;;;;;;;4.00;4.00;;;;;;;;4980699;28;45512;-73
2022/05/03 01:15:34;;;;;;;;;3.00;3.00;;;;;;;;4983442;28;45222;-73
2022/05/03 01:18:11;;;;;;;;;5.00;5.00;;;;;;;;4983724;28;45468;-73
2022/05/03 01:20:50;;;;;;;;;5.00;4.00;;;;;;;;4989686;28;45346;-73
2022/05/03 01:23:15;;;;;;;;;5.75;4.00;;;;;;;;5001759;28;46595;-73
2022/05/03 01:25:44;;;;;;;;;4.25;4.25;;;;;;;;4995080;28;45491;-74
2022/05/03 01:28:09;;;;;;;;;5.25;4.25;;;;;;;;4995567;28;45395;-73
2022/05/03 01:30:36;;;;;;;;;4.00;4.00;;;;;;;;4994713;28;45375;-73
2022/05/03 01:33:08;;;;;;;;;6.50;5.50;;;;;;;;4994618;28;45357;-73
2022/05/03 01:35:37;;;;;;;;;6.00;4.50;;;;;;;;4994879;28;45368;-74
2022/05/03 01:38:21;;;;;;;;;4.00;4.00;;;;;;;;5001770;28;45409;-73
2022/05/03 01:41:07;;;;;;;;;4.00;4.00;;;;;;;;4980087;28;45500;-73
2022/05/03 01:43:32;;;;;;;;;4.50;4.25;;;;;;;;5007507;28;48510;-73
2022/05/03 01:46:04;;;;;;;;;5.00;5.00;;;;;;;;4995196;28;45416;-73
2022/05/03 01:51:43;;;;;;;;;4.50;4.50;;;;;;;;4994545;28;45342;-73
2022/05/03 01:54:17;;;;;;;;;5.00;5.00;;;;;;;;4990459;28;45962;-73
2022/05/03 01:57:10;;;;;;;;;4.25;4.25;;;;;;;;4993852;28;45606;-73
2022/05/03 01:59:50;;;;;;;;;4.75;4.75;;;;;;;;4994232;28;46606;-73
2022/05/03 02:02:34;;;;;;;;;4.00;4.00;;;;;;;;4986697;28;45407;-74
2022/05/03 02:05:06;;;;;;;;;5.50;5.00;;;;;;;;4997807;28;45489;-74
2022/05/03 02:07:37;;;;;;;;;4.25;4.25;;;;;;;;4998686;28;45802;-73
2022/05/03 02:10:06;;;;;;;;;4.00;4.00;;;;;;;;5011417;28;45525;-73
2022/05/03 02:12:32;;;;;;;;;4.00;4.00;;;;;;;;4998145;28;45610;-73
2022/05/03 02:15:03;;;;;;;;;5.75;5.75;;;;;;;;4991343;28;47345;-73
2022/05/03 02:17:29;;;;;;;;;4.50;4.00;;;;;;;;4988817;28;45263;-73
2022/05/03 02:20:13;;;;;;;;;3.00;3.00;;;;;;;;4997681;28;45424;-73
2022/05/03 02:22:47;;;;;;;;;4.00;4.00;;;;;;;;5000415;28;45657;-73
2022/05/03 02:25:17;;;;;;;;;5.50;5.50;;;;;;;;4990364;28;47748;-73
2022/05/03 02:27:47;;;;;;;;;4.75;4.75;;;;;;;;5003337;28;45515;-73
2022/05/03 02:30:13;;;;;;;;;4.00;4.00;;;;;;;;4992185;28;45329;-73
2022/05/03 02:32:41;;;;;;;;;5.00;5.00;;;;;;;;4987842;28;45254;-73
2022/05/03 02:35:09;;;;;;;;;4.00;4.00;;;;;;;;4995131;28;46075;-73
2022/05/03 02:37:42;;;;;;;;;3.00;3.00;;;;;;;;5000445;28;45524;-73
2022/05/03 02:40:08;;;;;;;;;4.00;4.00;;;;;;;;4994356;28;45472;-73
2022/05/03 02:42:34;;;;;;;;;3.75;3.75;;;;;;;;4997106;28;45679;-73
2022/05/03 02:45:00;;;;;;;;;6.00;5.25;;;;;;;;4990771;28;45722;-73
2022/05/03 02:47:44;;;;;;;;;3.50;3.50;;;;;;;;4988249;28;45662;-73
2022/05/03 02:50:12;;;;;;;;;5.00;5.00;;;;;;;;5003216;28;45374;-73
2022/05/03 02:52:55;;;;;;;;;6.00;4.75;;;;;;;;4991257;28;45396;-73
2022/05/03 02:55:33;;;;;;;;;4.75;4.75;;;;;;;;4983620;28;45549;-73
2022/05/03 02:58:01;;;;;;;;;6.00;5.00;;;;;;;;4988656;28;45518;-73
2022/05/03 03:03:31;;;;;;;;;4.50;4.50;;;;;;;;4993245;28;45576;-73
2022/05/03 03:06:01;;;;;;;;;4.75;4.75;;;;;;;;4994144;28;47819;-73
2022/05/03 03:08:42;;;;;;;;;3.00;3.00;;;;;;;;4993931;28;45457;-73
2022/05/03 03:11:11;;;;;;;;;4.00;4.00;;;;;;;;4995514;28;45353;-73
2022/05/03 03:13:39;;;;;;;;;5.25;5.25;;;;;;;;4998739;28;45512;-73
2022/05/03 03:16:07;;;;;;;;;4.00;3.25;;;;;;;;4980999;28;45522;-73
2022/05/03 03:18:33;;;;;;;;;3.00;3.00;;;;;;;;4995172;28;45405;-73
2022/05/03 03:20:59;;;;;;;;;3.50;3.25;;;;;;;;4989015;28;45510;-73
2022/05/03 03:23:26;;;;;;;;;4.75;4.75;;;;;;;;4991820;28;45580;-73
2022/05/03 03:25:51;;;;;;;;;4.00;4.00;;;;;;;;4986678;28;46615;-73
2022/05/03 03:28:18;;;;;;;;;3.75;3.75;;;;;;;;4995535;28;45317;-73
2022/05/03 03:30:44;;;;;;;;;5.00;5.00;;;;;;;;4996009;28;45467;-73
2022/05/03 03:33:10;;;;;;;;;4.00;3.50;;;;;;;;4987276;28;45585;-73
2022/05/03 03:35:35;;;;;;;;;3.75;3.75;;;;;;;;4988896;28;46186;-73
2022/05/03 03:38:01;;;;;;;;;3.00;3.00;;;;;;;;5006130;28;45650;-73
2022/05/03 03:40:27;;;;;;;;;5.00;4.00;;;;;;;;4995757;28;45606;-73
2022/05/03 03:42:53;;;;;;;;;5.50;4.50;;;;;;;;4982654;28;45456;-73
2022/05/03 03:45:19;;;;;;;;;4.00;4.00;;;;;;;;4985299;28;46531;-73
2022/05/03 03:47:45;;;;;;;;;4.75;4.75;;;;;;;;4994954;28;45395;-73
2022/05/03 03:50:10;;;;;;;;;4.00;4.00;;;;;;;;4995161;28;45497;-73
2022/05/03 03:52:38;;;;;;;;;3.00;3.00;;;;;;;;4993446;28;45297;-73
2022/05/03 03:55:04;;;;;;;;;5.25;4.00;;;;;;;;4951129;28;1372763;-73
2022/05/03 03:57:30;;;;;;;;;5.25;4.25;;;;;;;;4989704;28;45379;-73
2022/05/03 03:59:55;;;;;;;;;4.00;4.00;;;;;;;;4995659;28;45482;-73
2022/05/03 04:02:22;;;;;;;;;4.25;4.00;;;;;;;;4994766;28;45487;-73
2022/05/03 04:04:48;;;;;;;;;4.00;4.00;;;;;;;;4996003;28;46253;-73
2022/05/03 04:07:13;;;;;;;;;4.00;4.00;;;;;;;;4980193;28;45389;-73
2022/05/03 04:09:39;;;;;;;;;5.50;3.75;;;;;;;;4996732;28;45562;-73
2022/05/03 04:12:04;;;;;;;;;4.00;4.00;;;;;;;;4995901;28;45320;-73
2022/05/03 04:14:30;;;;;;;;;3.75;2.50;;;;;;;;4993102;28;46034;-73
2022/05/03 04:16:55;;;;;;;;;5.25;5.25;;;;;;;;4995727;28;45393;-73
2022/05/03 04:19:21;;;;;;;;;4.00;4.00;;;;;;;;4995527;28;45425;-73
2022/05/03 04:21:46;;;;;;;;;3.25;3.25;;;;;;;;4983495;28;45633;-73
2022/05/03 04:24:12;;;;;;;;;5.25;5.00;;;;;;;;4992002;28;47280;-73
2022/05/03 04:26:37;;;;;;;;;4.75;4.75;;;;;;;;4995456;28;45456;-73
2022/05/03 04:29:03;;;;;;;;;4.25;4.25;;;;;;;;4994504;28;45380;-73
2022/05/03 04:31:29;;;;;;;;;5.00;5.00;;;;;;;;4979862;28;45279;-73
2022/05/03 04:33:55;;;;;;;;;4.00;4.00;;;;;;;;4993268;28;46324;-73
2022/05/03 04:36:21;;;;;;;;;2.50;2.50;;;;;;;;4987603;28;45465;-73
2022/05/03 04:38:46;;;;;;;;;5.50;3.50;;;;;;;;4983111;28;45522;-74
2022/05/03 04:41:12;;;;;;;;;4.00;4.00;;;;;;;;4993919;28;45562;-74
2022/05/03 04:43:37;;;;;;;;;3.00;3.00;;;;;;;;4995243;28;45551;-73
2022/05/03 04:46:02;;;;;;;;;3.25;3.00;;;;;;;;5001740;28;45269;-73
2022/05/03 04:48:27;;;;;;;;;3.50;3.50;;;;;;;;4996492;28;45278;-73
2022/05/03 04:50:53;;;;;;;;;4.50;4.50;;;;;;;;4989270;28;45341;-73
2022/05/03 04:53:18;;;;;;;;;3.00;3.00;;;;;;;;4983642;28;45568;-73
2022/05/03 04:55:43;;;;;;;;;4.00;4.00;;;;;;;;4985245;28;45419;-73
2022/05/03 04:58:09;;;;;;;;;6.00;5.25;;;;;;;;5003444;28;45475;-73
2022/05/03 05:00:34;;;;;;;;;4.25;3.75;;;;;;;;4995090;28;45612;-73
2022/05/03 05:03:00;;;;;;;;;4.00;4.00;;;;;;;;4995275;28;45811;-74
2022/05/03 05:05:25;;;;;;;;;5.00;5.00;;;;;;;;4996927;28;45892;-73
2022/05/03 05:07:50;;;;;;;;;4.00;4.00;;;;;;;;4995357;28;45455;-73
2022/05/03 05:10:26;;;;;;;;;4.50;4.50;;;;;;;;4979981;28;45506;-73
2022/05/03 05:12:52;;;;;;;;;4.00;3.75;;;;;;;;4982419;28;47405;-73
2022/05/03 05:15:17;;;;;;;;;3.00;3.00;;;;;;;;4993501;28;46328;-73
2022/05/03 05:17:42;;;;;;;;;5.00;5.00;;;;;;;;4996743;28;45378;-73
2022/05/03 05:20:08;;;;;;;;;3.25;3.25;;;;;;;;4994881;28;45324;-73
2022/05/03 05:22:33;;;;;;;;;4.25;3.50;;;;;;;;4994684;28;46149;-73
2022/05/03 05:24:58;;;;;;;;;3.00;3.00;;;;;;;;4995776;28;45416;-73
2022/05/03 05:27:23;;;;;;;;;5.25;5.25;;;;;;;;4985170;28;45360;-73
2022/05/03 05:29:48;;;;;;;;;3.50;3.50;;;;;;;;4988498;28;45808;-77
2022/05/03 05:32:14;;;;;;;;;4.00;4.00;;;;;;;;4990449;28;47176;-74
2022/05/03 05:34:39;;;;;;;;;3.00;3.00;;;;;;;;4993645;28;45440;-75
2022/05/03 05:37:04;;;;;;;;;3.50;3.50;;;;;;;;5002320;28;45362;-72
2022/05/03 05:39:29;;;;;;;;;4.75;4.75;;;;;;;;4992632;28;45849;-76
2022/05/03 05:41:56;;;;;;;;;3.00;3.00;;;;;;;;4993429;28;46366;-73
2022/05/03 05:44:21;;;;;;;;;4.75;4.75;;;;;;;;4992831;28;45548;-73
2022/05/03 05:46:46;;;;;;;;;4.50;4.25;;;;;;;;4992271;28;45508;-74
2022/05/03 05:49:11;;;;;;;;;3.00;3.00;;;;;;;;4989105;28;45397;-73
2022/05/03 05:51:36;;;;;;;;;3.75;3.75;;;;;;;;4991281;28;45424;-73
2022/05/03 05:54:02;;;;;;;;;3.00;3.00;;;;;;;;4993542;28;45426;-73
2022/05/03 05:56:27;;;;;;;;;4.50;2.75;;;;;;;;4992294;28;45467;-73
2022/05/03 05:58:52;;;;;;;;;4.00;4.00;;;;;;;;4993776;28;45544;-73
2022/05/03 06:01:23;;;;;;;;;3.25;3.25;;;;;;;;4991262;28;46341;-73
2022/05/03 06:03:48;;;;;;;;;3.00;3.00;;;;;;;;4993504;28;45412;-76
2022/05/03 06:06:13;;;;;;;;;3.00;3.00;;;;;;;;4990784;28;45786;-76
2022/05/03 06:08:38;;;;;;;;;3.00;3.00;;;;;;;;4990509;28;45559;-76
2022/05/03 06:11:04;;;;;;;;;5.25;3.75;;;;;;;;4991175;28;45937;-75
2022/05/03 06:13:30;;;;;;;;;4.00;4.00;;;;;;;;4994100;28;45623;-73
2022/05/03 06:16:05;;;;;;;;;5.00;5.00;;;;;;;;4980967;28;45274;-78
2022/05/03 06:18:30;;;;;;;;;4.75;3.75;;;;;;;;4983896;28;45426;-71
2022/05/03 06:20:55;;;;;;;;;5.50;5.50;;;;;;;;4987737;28;49312;-73
2022/05/03 06:23:21;;;;;;;;;4.25;4.25;;;;;;;;4983937;28;45539;-71
2022/05/03 06:25:47;;;;;;;;;4.00;4.00;;;;;;;;5008191;28;45560;-71
2022/05/03 06:28:12;;;;;;;;;3.75;3.75;;;;;;;;4979011;28;45292;-71
2022/05/03 06:30:38;;;;;;;;;4.00;4.00;;;;;;;;4982115;28;47410;-71
2022/05/03 06:33:05;;;;;;;;;4.00;4.00;;;;;;;;4989838;28;45621;-71
2022/05/03 06:35:30;;;;;;;;;2.75;2.75;;;;;;;;5001508;28;45325;-71
2022/05/03 06:37:56;;;;;;;;;3.25;3.00;;;;;;;;4993917;28;45530;-71
2022/05/03 06:40:21;;;;;;;;;4.75;4.00;;;;;;;;4994037;28;46514;-71
2022/05/03 06:42:46;;;;;;;;;4.75;2.75;;;;;;;;4994324;28;45361;-71
2022/05/03 06:45:11;;;;;;;;;3.75;3.75;;;;;;;;4985710;28;45330;-71
2022/05/03 06:47:38;;;;;;;;;4.75;4.00;;;;;;;;4984817;28;45760;-71
2022/05/03 06:50:03;;;;;;;;;4.00;4.00;;;;;;;;4994577;28;46501;-71
2022/05/03 06:52:29;;;;;;;;;4.00;4.00;;;;;;;;4981457;28;45283;-71
2022/05/03 06:54:54;;;;;;;;;3.75;3.75;;;;;;;;4997669;28;45152;-71
2022/05/03 06:57:19;;;;;;;;;2.50;2.50;;;;;;;;4987954;28;45457;-71
2022/05/03 06:59:45;;;;;;;;;3.50;3.50;;;;;;;;4985215;28;46776;-71
2022/05/03 07:02:11;;;;;;;;;4.00;4.00;;;;;;;;4992067;28;45232;-71
2022/05/03 07:04:36;;;;;;;;;3.00;3.00;;;;;;;;4996163;28;45425;-70
2022/05/03 07:07:01;;;;;;;;;5.00;3.50;;;;;;;;4999734;28;45219;-71
2022/05/03 07:09:26;;;;;;;;;3.50;3.50;;;;;;;;4995888;28;45444;-71
2022/05/03 07:11:51;;;;;;;;;4.50;4.00;;;;;;;;4995240;28;45357;-70
2022/05/03 07:14:18;;;;;;;;;3.00;3.00;;;;;;;;4996671;28;45401;-71
2022/05/03 07:16:43;;;;;;;;;5.25;4.00;;;;;;;;4997169;28;45300;-71
2022/05/03 07:22:45;;;;;;;;;3.00;2.00;;;;;;;;4982340;28;45367;-70
2022/05/03 07:24:56;;;;;;;;;3.50;3.50;;;;;;;;4982147;28;45299;-70
2022/05/03 07:27:21;;;;;;;;;4.00;4.00;;;;;;;;4993486;28;45443;-71
2022/05/03 07:29:46;;;;;;;;;2.25;2.25;;;;;;;;4995422;28;45462;-70
2022/05/03 07:32:11;;;;;;;;;2.75;2.75;;;;;;;;4996573;28;45445;-71
2022/05/03 07:34:36;;;;;;;;;3.50;3.25;;;;;;;;5004150;28;45439;-71
2022/05/03 07:37:02;;;;;;;;;3.25;3.25;;;;;;;;4982301;28;45618;-71
2022/05/03 07:39:28;;;;;;;;;3.00;3.00;;;;;;;;4994878;28;46402;-71
2022/05/03 07:41:53;;;;;;;;;4.00;4.00;;;;;;;;4996128;28;45467;-71
2022/05/03 07:44:19;;;;;;;;;5.75;3.75;;;;;;;;4995570;28;45406;-71
2022/05/03 07:46:44;;;;;;;;;3.50;3.50;;;;;;;;4981758;28;45365;-71
2022/05/03 07:49:10;;;;;;;;;4.00;4.00;;;;;;;;4983557;28;45479;-71
2022/05/03 07:51:35;;;;;;;;;3.50;3.50;;;;;;;;4985363;28;45459;-71
2022/05/03 07:54:01;;;;;;;;;2.00;2.00;;;;;;;;4986442;28;45467;-71
2022/05/03 07:56:26;;;;;;;;;3.00;3.00;;;;;;;;4994683;28;45446;-71
2022/05/03 07:58:51;;;;;;;;;4.00;2.75;;;;;;;;4995717;28;46222;-71
2022/05/03 08:01:16;;;;;;;;;4.00;4.00;;;;;;;;4996292;28;45437;-71
2022/05/03 08:03:41;;;;;;;;;4.00;4.00;;;;;;;;4983617;28;45499;-71
2022/05/03 08:06:07;;;;;;;;;3.25;3.25;;;;;;;;4992134;28;45428;-71
2022/05/03 08:08:32;;;;;;;;;3.00;3.00;;;;;;;;4992987;28;45426;-71
2022/05/03 08:10:58;;;;;;;;;4.50;3.00;;;;;;;;4982940;28;45546;-71
2022/05/03 08:13:23;;;;;;;;;4.50;4.50;;;;;;;;4994953;28;45381;-71
2022/05/03 08:15:48;;;;;;;;;3.50;2.25;;;;;;;;4996833;28;45581;-71
2022/05/03 08:18:13;;;;;;;;;4.00;2.75;;;;;;;;4995831;28;46529;-71
2022/05/03 08:20:39;;;;;;;;;3.00;3.00;;;;;;;;4997395;28;45571;-71
2022/05/03 08:23:04;;;;;;;;;3.50;3.00;;;;;;;;5003471;28;45578;-71
2022/05/03 08:25:32;;;;;;;;;3.75;3.75;;;;;;;;4978719;28;45547;-71
2022/05/03 08:27:58;;;;;;;;;4.25;4.25;;;;;;;;4982170;28;47071;-71
2022/05/03 08:30:23;;;;;;;;;3.00;3.00;;;;;;;;4989394;28;45481;-71
2022/05/03 08:32:49;;;;;;;;;3.00;3.00;;;;;;;;4994387;28;45532;-71
2022/05/03 08:35:15;;;;;;;;;4.50;4.00;;;;;;;;4990344;28;45603;-71
2022/05/03 08:43:08;;;;;;;;;4.50;3.50;;;;;;;;4980814;28;45382;-71
2022/05/03 08:45:34;;;;;;;;;2.75;2.50;;;;;;;;4987334;28;45603;-71
2022/05/03 08:48:03;;;;;;;;;2.25;2.25;;;;;;;;4989075;28;45454;-71
2022/05/03 08:50:30;;;;;;;;;2.25;2.25;;;;;;;;4988395;28;45429;-71
2022/05/03 08:52:58;;;;;;;;;3.75;3.75;;;;;;;;4995519;28;45426;-71
2022/05/03 08:55:23;;;;;;;;;5.75;3.00;;;;;;;;4994618;28;45393;-71
2022/05/03 08:57:49;;;;;;;;;1.75;1.75;;;;;;;;4993628;28;45515;-71
2022/05/03 09:00:15;;;;;;;;;3.00;3.00;;;;;;;;4992545;28;45408;-72
2022/05/03 09:02:42;;;;;;;;;3.00;3.00;;;;;;;;4995268;28;48527;-71
2022/05/03 09:05:07;;;;;;;;;4.00;4.00;;;;;;;;4994616;28;45421;-71
2022/05/03 09:07:34;;;;;;;;;3.00;3.00;;;;;;;;4979094;28;46427;-71
2022/05/03 09:10:13;;;;;;;;;2.00;2.00;;;;;;;;5001206;28;45288;-71
2022/05/03 09:12:39;;;;;;;;;4.00;4.00;;;;;;;;4983500;28;45398;-71
2022/05/03 09:15:04;;;;;;;;;3.00;3.00;;;;;;;;4988267;28;45471;-71
2022/05/03 09:17:34;;;;;;;;;3.00;3.00;;;;;;;;4992638;28;46583;-71
2022/05/03 09:23:46;;;;;;;;;5.00;3.75;;;;;;;;4984056;28;45477;-71
2022/05/03 09:25:28;;;;;;;;;3.75;3.00;;;;;;;;4994183;28;45685;-69
2022/05/03 09:28:04;;;;;;;;;2.00;2.00;;;;;;;;4982145;28;46389;-70
2022/05/03 09:30:30;;;;;;;;;2.00;2.00;;;;;;;;4988220;28;45427;-70
2022/05/03 09:32:56;;;;;;;;;4.00;4.00;;;;;;;;4994692;28;45464;-71
2022/05/03 09:35:27;;;;;;;;;3.25;3.25;;;;;;;;5002155;28;45401;-71
2022/05/03 09:37:52;;;;;;;;;2.00;2.00;;;;;;;;4994584;28;46515;-70
2022/05/03 09:40:18;;;;;;;;;2.00;2.00;;;;;;;;4985581;28;45359;-71
2022/05/03 09:42:51;;;;;;;;;2.50;2.50;;;;;;;;4995328;28;45374;-71
2022/05/03 09:45:20;;;;;;;;;3.75;3.75;;;;;;;;4990108;28;45508;-70
2022/05/03 09:47:51;;;;;;;;;4.25;3.75;;;;;;;;4993194;28;47327;-70
2022/05/03 09:50:35;;;;;;;;;2.50;2.50;;;;;;;;5001813;28;45444;-70
2022/05/03 09:53:11;;;;;;;;;3.00;3.00;;;;;;;;4981584;28;45500;-71
2022/05/03 09:55:37;;;;;;;;;2.25;2.25;;;;;;;;4994193;28;45491;-71
2022/05/03 09:58:04;;;;;;;;;1.50;1.50;;;;;;;;4990943;28;46374;-69
2022/05/03 10:00:31;;;;;;;;;3.00;3.00;;;;;;;;4992157;28;45479;-71
2022/05/03 10:02:57;;;;;;;;;3.00;3.00;;;;;;;;4994575;28;45272;-71
2022/05/03 10:05:23;;;;;;;;;5.25;3.25;;;;;;;;4995444;28;45373;-71
2022/05/03 10:07:49;;;;;;;;;2.50;2.50;;;;;;;;5007901;28;48468;-70
2022/05/03 10:10:16;;;;;;;;;2.75;2.75;;;;;;;;4994528;28;45337;-70
2022/05/03 10:12:42;;;;;;;;;2.50;2.50;;;;;;;;4983089;28;45492;-70
2022/05/03 10:15:07;;;;;;;;;4.00;4.00;;;;;;;;4990406;28;45481;-70
2022/05/03 10:20:39;;;;;;;;;2.50;2.50;;;;;;;;4993071;28;45388;-70
2022/05/03 10:23:18;;;;;;;;;1.00;1.00;;;;;;;;4992354;28;45363;-70
2022/05/03 10:25:47;;;;;;;;;3.00;2.00;;;;;;;;4982495;28;45528;-70
2022/05/03 10:28:12;;;;;;;;;4.00;3.75;;;;;;;;4998093;28;45337;-70
2022/05/03 10:30:38;;;;;;;;;3.50;3.50;;;;;;;;4997565;28;45329;-71
2022/05/03 10:33:19;;;;;;;;;2.00;2.00;;;;;;;;4990931;28;45446;-70
2022/05/03 10:35:44;;;;;;;;;2.00;2.00;;;;;;;;4990820;28;45518;-70
2022/05/03 10:38:09;;;;;;;;;2.75;2.75;;;;;;;;4985324;28;46135;-71
2022/05/03 10:40:39;;;;;;;;;3.00;2.00;;;;;;;;4997483;28;45409;-70
2022/05/03 10:43:06;;;;;;;;;2.00;2.00;;;;;;;;4998428;28;45384;-71
2022/05/03 10:45:46;;;;;;;;;4.00;4.00;;;;;;;;4989513;28;45440;-70
2022/05/03 10:48:21;;;;;;;;;2.25;2.25;;;;;;;;4996884;28;45475;-70
2022/05/03 10:50:47;;;;;;;;;1.25;1.25;;;;;;;;4998764;28;45462;-70
2022/05/03 10:53:16;;;;;;;;;3.75;1.75;;;;;;;;4996873;28;45328;-70
2022/05/03 10:56:04;;;;;;;;;3.75;3.00;;;;;;;;4981811;28;45575;-70
2022/05/03 10:58:31;;;;;;;;;3.00;2.50;;;;;;;;4995513;28;46550;-70
2022/05/03 11:01:02;;;;;;;;;2.75;2.75;;;;;;;;4997392;28;45388;-71
2022/05/03 11:03:27;;;;;;;;;1.00;1.00;;;;;;;;4996899;28;45358;-70
2022/05/03 11:06:11;;;;;;;;;2.00;2.00;;;;;;;;4996527;28;45475;-71
2022/05/03 11:08:36;;;;;;;;;2.75;2.00;;;;;;;;4996773;28;45388;-72
2022/05/03 11:11:02;;;;;;;;;3.00;1.00;;;;;;;;5004451;28;45444;-71
2022/05/03 11:13:37;;;;;;;;;2.00;2.00;;;;;;;;4997171;28;45311;-70
2022/05/03 11:16:22;;;;;;;;;3.00;1.00;;;;;;;;4983313;28;45338;-70
2022/05/03 11:18:47;;;;;;;;;1.00;1.00;;;;;;;;4996430;28;46814;-70
2022/05/03 11:21:13;;;;;;;;;1.75;1.75;;;;;;;;5000952;28;45434;-70
2022/05/03 11:23:46;;;;;;;;;2.00;1.25;;;;;;;;4998732;28;45341;-70
2022/05/03 11:26:11;;;;;;;;;1.00;1.00;;;;;;;;4985416;28;45552;-70
2022/05/03 11:28:37;;;;;;;;;2.00;2.00;;;;;;;;4995498;28;46305;-71
2022/05/03 11:31:02;;;;;;;;;2.00;2.00;;;;;;;;4997448;28;45274;-70
2022/05/03 11:33:27;;;;;;;;;3.00;2.00;;;;;;;;4993555;28;45432;-70
2022/05/03 11:35:54;;;;;;;;;1.50;1.50;;;;;;;;4990786;28;45503;-70
2022/05/03 11:38:19;;;;;;;;;1.00;1.00;;;;;;;;4985269;28;46331;-70
2022/05/03 11:40:45;;;;;;;;;1.00;1.00;;;;;;;;4981393;28;45409;-70
2022/05/03 11:43:12;;;;;;;;;2.00;2.00;;;;;;;;4997610;28;45541;-71
2022/05/03 11:45:38;;;;;;;;;1.25;1.25;;;;;;;;5003361;28;45623;-70
2022/05/03 11:48:03;;;;;;;;;2.00;2.00;;;;;;;;4994023;28;45291;-70
2022/05/03 11:56:00;;;;;;;;;2.50;2.50;;;;;;;;4982891;28;45342;-70
2022/05/03 11:58:27;;;;;;;;;1.50;1.50;;;;;;;;4996393;28;46099;-70
2022/05/03 12:00:52;;;;;;;;;2.00;2.00;;;;;;;;4994458;28;46824;-70
2022/05/03 12:03:17;;;;;;;;;1.00;1.00;;;;;;;;4996223;28;45455;-71
2022/05/03 12:05:56;;;;;;;;;2.00;2.00;;;;;;;;4987558;28;45463;-70
2022/05/03 12:08:23;;;;;;;;;1.75;1.75;;;;;;;;4985918;28;46663;-70
2022/05/03 12:10:49;;;;;;;;;1.00;1.00;;;;;;;;4996160;28;48088;-70
2022/05/03 12:13:17;;;;;;;;;1.75;1.75;;;;;;;;4996350;28;45507;-70
2022/05/03 12:15:49;;;;;;;;;2.00;2.00;;;;;;;;4995567;28;45457;-70
2022/05/03 12:18:23;;;;;;;;;2.25;2.25;;;;;;;;4987392;28;46769;-70
2022/05/03 12:20:51;;;;;;;;;2.75;2.75;;;;;;;;4987245;28;45494;-70
2022/05/03 12:23:19;;;;;;;;;3.00;1.00;;;;;;;;4992575;28;45362;-70
2022/05/03 12:26:07;;;;;;;;;2.50;2.50;;;;;;;;4996021;28;45433;-70
2022/05/03 12:28:36;;;;;;;;;1.00;1.00;;;;;;;;4979292;28;46155;-70
2022/05/03 12:31:03;;;;;;;;;2.00;2.00;;;;;;;;4995116;28;45423;-70
2022/05/03 12:33:28;;;;;;;;;2.00;2.00;;;;;;;;4995294;28;45369;-70
2022/05/03 12:35:53;;;;;;;;;2.00;2.00;;;;;;;;4995231;28;46703;-70
2022/05/03 12:38:21;;;;;;;;;1.50;1.00;;;;;;;;4991536;28;48305;-70
2022/05/03 12:40:48;;;;;;;;;2.50;2.50;;;;;;;;4980882;28;45561;-71
2022/05/03 12:43:14;;;;;;;;;2.00;2.00;;;;;;;;4996044;28;45396;-70
2022/05/03 12:45:39;;;;;;;;;2.00;2.00;;;;;;;;4987505;28;45644;-70
2022/05/03 12:48:06;;;;;;;;;2.00;2.00;;;;;;;;4994531;28;47362;-70
2022/05/03 12:50:31;;;;;;;;;1.50;1.50;;;;;;;;4997103;28;45397;-70
2022/05/03 12:52:57;;;;;;;;;2.00;2.00;;;;;;;;4995452;28;45364;-71
2022/05/03 12:55:22;;;;;;;;;1.00;1.00;;;;;;;;4997184;28;45392;-70
2022/05/03 13:00:33;;;;;;;;;1.75;1.75;;;;;;;;4994165;28;45440;-70
2022/05/03 13:03:01;;;;;;;;;2.00;2.00;;;;;;;;4994920;28;45342;-70
2022/05/03 13:05:26;;;;;;;;;1.25;1.25;;;;;;;;4995315;28;45503;-70
2022/05/03 13:07:51;;;;;;;;;4.00;1.25;;;;;;;;4994840;28;45638;-70
2022/05/03 13:10:16;;;;;;;;;1.00;1.00;;;;;;;;4995381;28;45349;-70
2022/05/03 13:12:42;;;;;;;;;2.00;2.00;;;;;;;;4990007;28;45384;-70
2022/05/03 13:15:07;;;;;;;;;1.00;1.00;;;;;;;;4987888;28;45507;-70
2022/05/03 13:17:32;;;;;;;;;1.25;1.00;;;;;;;;4985829;28;45675;-70
2022/05/03 13:19:57;;;;;;;;;1.00;1.00;;;;;;;;4995068;28;45344;-70
2022/05/03 13:22:23;;;;;;;;;2.00;2.00;;;;;;;;4999620;28;45382;-70
2022/05/03 13:24:48;;;;;;;;;2.00;2.00;;;;;;;;4989390;28;45277;-70
2022/05/03 13:27:13;;;;;;;;;3.00;2.00;;;;;;;;4990032;28;45448;-70
2022/05/03 13:29:38;;;;;;;;;1.75;1.75;;;;;;;;4983971;28;45476;-70
2022/05/03 13:32:04;;;;;;;;;1.00;1.00;;;;;;;;4988811;28;45478;-70
2022/05/03 13:34:29;;;;;;;;;1.00;1.00;;;;;;;;4989747;28;45421;-70
2022/05/03 13:42:22;;;;;;;;;3.00;2.00;;;;;;;;4992387;28;45404;-70
2022/05/03 13:44:47;;;;;;;;;3.50;1.25;;;;;;;;4996046;28;48399;-70
2022/05/03 13:47:13;;;;;;;;;2.25;2.25;;;;;;;;4994115;28;45404;-70
2022/05/03 13:49:39;;;;;;;;;1.00;1.00;;;;;;;;5005169;28;45472;-70
2022/05/03 13:52:05;;;;;;;;;1.00;1.00;;;;;;;;4995666;28;45400;-70
2022/05/03 13:54:30;;;;;;;;;2.00;2.00;;;;;;;;4994389;28;45547;-70
2022/05/03 13:56:56;;;;;;;;;1.50;1.50;;;;;;;;4992721;28;46520;-70
2022/05/03 13:59:21;;;;;;;;;2.00;2.00;;;;;;;;4986781;28;45590;-70
2022/05/03 14:01:46;;;;;;;;;2.00;2.00;;;;;;;;4995778;28;45270;-71
2022/05/03 14:04:12;;;;;;;;;1.25;1.25;;;;;;;;4983228;28;45408;-71
2022/05/03 14:06:37;;;;;;;;;1.25;1.25;;;;;;;;4994323;28;45863;-70
2022/05/03 14:09:02;;;;;;;;;1.75;1.75;;;;;;;;4991670;28;45386;-70
2022/05/03 14:11:28;;;;;;;;;2.00;2.00;;;;;;;;4987098;28;45231;-70
2022/05/03 14:13:53;;;;;;;;;1.00;1.00;;;;;;;;4990121;28;45411;-70
2022/05/03 14:16:19;;;;;;;;;3.00;2.25;;;;;;;;4982219;28;46263;-70
2022/05/03 14:18:44;;;;;;;;;1.00;1.00;;;;;;;;4997312;28;45458;-70
2022/05/03 14:21:10;;;;;;;;;2.00;2.00;;;;;;;;4999403;28;45554;-70
2022/05/03 14:23:35;;;;;;;;;2.00;2.00;;;;;;;;5004959;28;45560;-70
2022/05/03 14:26:01;;;;;;;;;1.00;1.00;;;;;;;;4997529;28;46826;-70
2022/05/03 14:28:26;;;;;;;;;1.00;1.00;;;;;;;;4980676;28;45559;-70
2022/05/03 14:30:51;;;;;;;;;2.00;2.00;;;;;;;;4985016;28;45437;-70
2022/05/03 14:33:17;;;;;;;;;2.50;2.00;;;;;;;;4994682;28;45495;-70
2022/05/03 14:35:42;;;;;;;;;2.00;2.00;;;;;;;;4997155;28;45695;-70
2022/05/03 14:38:07;;;;;;;;;2.50;2.25;;;;;;;;4997360;28;45415;-70
2022/05/03 14:40:33;;;;;;;;;1.75;1.75;;;;;;;;5011404;28;45440;-70
2022/05/03 14:43:01;;;;;;;;;2.00;2.00;;;;;;;;5004114;28;45449;-70
2022/05/03 14:45:26;;;;;;;;;1.00;1.00;;;;;;;;4997230;28;46558;-70
2022/05/03 14:47:52;;;;;;;;;1.25;1.25;;;;;;;;5002503;28;45384;-70
2022/05/03 14:50:17;;;;;;;;;3.00;3.00;;;;;;;;4997788;28;45440;-70
2022/05/03 14:52:43;;;;;;;;;1.50;1.50;;;;;;;;4997151;28;45511;-70
2022/05/03 14:55:08;;;;;;;;;1.00;1.00;;;;;;;;4994013;28;45465;-70
2022/05/03 15:03:03;;;;;;;;;2.50;2.50;;;;;;;;4986201;28;45325;-71
2022/05/03 15:05:32;;;;;;;;;4.00;4.00;;;;;;;;4986369;28;46360;-70
2022/05/03 15:07:59;;;;;;;;;3.25;3.25;;;;;;;;4995944;28;45430;-70
2022/05/03 15:10:24;;;;;;;;;1.50;1.00;;;;;;;;4981557;28;45349;-70
2022/05/03 15:12:50;;;;;;;;;3.00;3.00;;;;;;;;4984698;28;45598;-70
2022/05/03 15:15:16;;;;;;;;;4.00;3.00;;;;;;;;4985837;28;46579;-70
2022/05/03 15:17:45;;;;;;;;;2.25;2.25;;;;;;;;4988809;28;45547;-70
2022/05/03 15:20:11;;;;;;;;;2.25;2.25;;;;;;;;4996807;28;45546;-70
2022/05/03 15:25:24;;;;;;;;;3.00;2.75;;;;;;;;4941707;28;46037;-70
2022/05/03 15:27:50;;;;;;;;;3.00;3.00;;;;;;;;4955744;28;45410;-70
2022/05/03 15:30:15;;;;;;;;;3.00;2.00;;;;;;;;4955069;28;45502;-71